Owatonna, Minnesota
Current Conditions -  °F | °C
As of 9:35 AM on Thursday 23 Oct 2014 (Local Time) from KOWA Reporting Station
Haze Haze  
Wind Chill: 52°   Ceiling: 300
Heat Index: 52°   Visibility: 3mi
Dew Point: 48°   Wind: 3mph
Humidity: 88%   Direction: 150°SSE
Pressure: 30.02"   Gusts: NA
Location:  44.09°N, 93.23°W
Report Text: KOWA 231435Z AUTO 15003KT 3SM BR OVC003 11/09 A3002 RMK AO2
Loading
Personal Weather Stations






























Interactive Weather Map
Tropical Storm Tracking
New forecast layout! Learn more

10-Day Weather Forecast

Advertisements
Track Severe Weather on mobile